Time;durP1;ratioP1;P1;durP2;ratioP2;P2;SDS_P1;SDS_P2;PMS_P1;PMS_P2;Temp;Humidity;BMP_temperature;BMP_pressure;BME280_temperature;BME280_humidity;BME280_pressure;Samples;Min_cycle;Max_cycle;Signal;HPM_P1;HPM_P2
2021/03/20 00:01:33;;;;;;;18.10;10.35;;;3.40;99.90;;;;;;5086926;28;20053;-56
2021/03/20 00:03:59;;;;;;;16.35;9.38;;;3.60;99.90;;;;;;5105397;28;20027;-57
2021/03/20 00:06:30;;;;;;;17.88;10.13;;;3.60;99.90;;;;;;5111838;27;20049;-56
2021/03/20 00:08:57;;;;;;;14.38;8.85;;;3.70;99.90;;;;;;5112299;28;20051;-56
2021/03/20 00:11:24;;;;;;;15.80;7.97;;;3.70;99.90;;;;;;5103986;27;20027;-57
2021/03/20 00:13:50;;;;;;;17.05;10.30;;;3.70;99.90;;;;;;5119832;27;20035;-55
2021/03/20 00:16:16;;;;;;;14.90;9.20;;;3.80;99.90;;;;;;5130901;27;20477;-56
2021/03/20 00:18:42;;;;;;;12.38;9.57;;;3.70;99.90;;;;;;5131003;27;20048;-57
2021/03/20 00:21:08;;;;;;;13.52;8.95;;;3.70;99.90;;;;;;5119693;27;20024;-54
2021/03/20 00:23:34;;;;;;;17.15;9.35;;;3.60;99.90;;;;;;5130382;27;20035;-52
2021/03/20 00:26:00;;;;;;;14.50;8.63;;;3.50;99.90;;;;;;5130923;27;20027;-55
2021/03/20 00:28:27;;;;;;;15.65;9.18;;;3.50;99.90;;;;;;5130659;27;20023;-57
2021/03/20 00:30:59;;;;;;;14.23;9.18;;;3.50;99.90;;;;;;5113609;27;20398;-57
2021/03/20 00:33:25;;;;;;;12.40;8.05;;;3.50;99.90;;;;;;5131009;27;20019;-57
2021/03/20 00:35:52;;;;;;;13.32;8.65;;;3.60;99.90;;;;;;5112619;27;20474;-56
2021/03/20 00:38:19;;;;;;;14.07;9.35;;;3.60;99.90;;;;;;5111567;27;20027;-56
2021/03/20 00:40:44;;;;;;;18.65;9.10;;;3.70;99.90;;;;;;5110480;27;20023;-58
2021/03/20 00:43:11;;;;;;;11.95;8.75;;;3.70;99.90;;;;;;5111292;28;20110;-56
2021/03/20 00:45:37;;;;;;;12.57;8.65;;;3.70;99.90;;;;;;5109559;28;20023;-57
2021/03/20 00:48:18;;;;;;;10.90;7.72;;;3.70;99.90;;;;;;5122453;27;20148;-59
2021/03/20 00:50:44;;;;;;;10.80;7.45;;;3.70;99.90;;;;;;5128319;27;20031;-57
2021/03/20 00:53:10;;;;;;;11.18;8.02;;;3.70;99.90;;;;;;5109878;28;20279;-57
2021/03/20 00:55:35;;;;;;;16.05;8.27;;;3.70;99.90;;;;;;5110055;27;20039;-59
2021/03/20 00:58:17;;;;;;;11.85;9.02;;;3.60;99.90;;;;;;5108299;28;20027;-58
2021/03/20 01:00:42;;;;;;;12.20;8.52;;;3.60;99.90;;;;;;5106931;28;20028;-57
2021/03/20 01:03:08;;;;;;;13.77;8.93;;;3.60;99.90;;;;;;5103627;28;20103;-55
2021/03/20 01:05:33;;;;;;;13.25;8.60;;;3.60;99.90;;;;;;5109689;28;20035;-56
2021/03/20 01:07:59;;;;;;;12.60;8.32;;;3.60;99.90;;;;;;5110183;28;20020;-58
2021/03/20 01:10:25;;;;;;;12.38;8.30;;;3.50;99.90;;;;;;5110939;28;20042;-56
2021/03/20 01:12:50;;;;;;;12.23;8.80;;;3.50;99.90;;;;;;5109364;28;20439;-53
2021/03/20 01:15:17;;;;;;;15.85;9.32;;;3.50;99.90;;;;;;5106731;28;20059;-52
2021/03/20 01:17:43;;;;;;;17.23;9.52;;;3.50;99.90;;;;;;5109513;28;20031;-57
2021/03/20 01:20:09;;;;;;;14.20;9.02;;;3.40;99.90;;;;;;5108862;28;20041;-54
2021/03/20 01:22:35;;;;;;;13.43;9.00;;;3.40;99.90;;;;;;5108830;28;20421;-55
2021/03/20 01:25:01;;;;;;;13.02;9.35;;;3.30;99.90;;;;;;5110369;28;20027;-53
2021/03/20 01:27:26;;;;;;;13.23;9.02;;;3.30;99.90;;;;;;5111398;28;20023;-55
2021/03/20 01:29:52;;;;;;;12.23;8.68;;;3.30;99.90;;;;;;5111090;28;20019;-57
2021/03/20 01:32:18;;;;;;;15.20;9.23;;;3.30;99.90;;;;;;5109298;28;20031;-56
2021/03/20 01:34:43;;;;;;;14.27;9.50;;;3.20;99.90;;;;;;5108498;28;20059;-56
2021/03/20 01:37:09;;;;;;;12.50;9.00;;;3.20;99.90;;;;;;5130033;28;20032;-56
2021/03/20 01:39:34;;;;;;;16.40;9.35;;;3.20;99.90;;;;;;5113191;28;20046;-57
2021/03/20 01:42:05;;;;;;;12.93;9.10;;;3.20;99.90;;;;;;5110525;28;20028;-56
2021/03/20 01:44:30;;;;;;;13.25;8.98;;;3.20;99.90;;;;;;5122991;28;20054;-54
2021/03/20 01:46:56;;;;;;;20.08;9.75;;;3.20;99.90;;;;;;5129834;28;20441;-54
2021/03/20 01:49:34;;;;;;;13.27;8.98;;;3.20;99.90;;;;;;5129412;28;20028;-51
2021/03/20 01:51:59;;;;;;;11.93;8.57;;;3.20;99.90;;;;;;5119031;28;20019;-53
2021/03/20 01:54:32;;;;;;;14.23;10.15;;;3.20;99.90;;;;;;5130251;28;20027;-56
2021/03/20 01:56:58;;;;;;;14.88;9.43;;;3.20;99.90;;;;;;5120151;28;20028;-56
2021/03/20 01:59:25;;;;;;;13.43;8.93;;;3.20;99.90;;;;;;5113457;28;20036;-58
2021/03/20 02:01:50;;;;;;;14.70;9.45;;;3.20;99.90;;;;;;5130296;28;20027;-57
2021/03/20 02:04:16;;;;;;;13.32;9.65;;;3.20;99.90;;;;;;5126553;27;20051;-54
2021/03/20 02:06:42;;;;;;;16.08;10.20;;;3.10;99.90;;;;;;5120912;27;20035;-57
2021/03/20 02:09:10;;;;;;;15.23;9.35;;;3.20;99.90;;;;;;5112374;27;20034;-56
2021/03/20 02:12:01;;;;;;;15.50;10.10;;;3.10;99.90;;;;;;5107410;28;20107;-55
2021/03/20 02:14:58;;;;;;;14.43;8.75;;;3.10;99.90;;;;;;5111544;27;20019;-56
2021/03/20 02:17:36;;;;;;;17.52;11.18;;;3.00;99.90;;;;;;5113115;27;20061;-57
2021/03/20 02:20:34;;;;;;;15.95;9.48;;;3.00;99.90;;;;;;5110316;27;20101;-55
2021/03/20 02:23:11;;;;;;;15.30;10.77;;;2.90;99.90;;;;;;5127888;27;20020;-55
2021/03/20 02:25:46;;;;;;;20.55;10.65;;;2.90;99.90;;;;;;5110396;27;20109;-53
2021/03/20 02:28:41;;;;;;;15.23;10.38;;;2.90;99.90;;;;;;5108837;27;20301;-55
2021/03/20 02:31:19;;;;;;;16.50;10.23;;;2.90;99.90;;;;;;5106835;27;20042;-57
2021/03/20 02:34:12;;;;;;;17.73;10.60;;;2.90;99.90;;;;;;5133285;27;20043;-57
2021/03/20 02:36:47;;;;;;;13.68;10.15;;;2.80;99.90;;;;;;5130247;27;20031;-54
2021/03/20 02:39:17;;;;;;;;;;;2.70;99.90;;;;;;5126764;27;20492;-54
2021/03/20 02:42:07;;;;;;;15.48;9.93;;;2.40;99.90;;;;;;5127513;27;20286;-56
2021/03/20 02:44:43;;;;;;;24.73;10.73;;;2.20;99.90;;;;;;5115906;27;20036;-56
2021/03/20 02:47:11;;;;;;;17.95;10.80;;;2.00;99.90;;;;;;5125521;27;20108;-57
2021/03/20 02:50:01;;;;;;;20.05;11.32;;;1.90;99.90;;;;;;5132709;27;20083;-57
2021/03/20 02:52:36;;;;;;;17.15;10.48;;;1.80;99.90;;;;;;5120988;27;20042;-55
2021/03/20 02:55:26;;;;;;;17.58;11.00;;;1.70;99.90;;;;;;5132855;27;20437;-56
2021/03/20 02:58:10;;;;;;;16.55;10.70;;;1.70;99.90;;;;;;5106216;27;20402;-54
2021/03/20 03:00:50;;;;;;;22.63;13.10;;;1.70;99.90;;;;;;5125012;27;20028;-57
2021/03/20 03:03:18;;;;;;;16.55;11.23;;;1.70;99.90;;;;;;5132162;27;20098;-55
2021/03/20 03:06:16;;;;;;;19.25;12.05;;;1.80;99.90;;;;;;5118948;27;20031;-53
2021/03/20 03:08:48;;;;;;;16.23;11.23;;;2.00;99.90;;;;;;5111898;27;20024;-57
2021/03/20 03:11:32;;;;;;;19.80;12.55;;;2.10;99.90;;;;;;5120634;27;20035;-56
2021/03/20 03:14:07;;;;;;;18.67;12.33;;;2.20;99.90;;;;;;5132077;27;20090;-55
2021/03/20 03:16:45;;;;;;;18.80;12.52;;;2.30;99.90;;;;;;5130582;27;20019;-57
2021/03/20 03:19:19;;;;;;;21.17;12.55;;;2.40;99.90;;;;;;5127001;27;20035;-57
2021/03/20 03:21:47;;;;;;;18.88;11.82;;;2.40;99.90;;;;;;5132628;27;20023;-56
2021/03/20 03:24:17;;;;;;;17.33;11.82;;;2.50;99.90;;;;;;5123549;27;20047;-56
2021/03/20 03:26:51;;;;;;;18.55;11.63;;;2.50;99.90;;;;;;5132141;27;20075;-57
2021/03/20 03:29:23;;;;;;;18.50;11.40;;;2.50;99.90;;;;;;5102997;28;20031;-55
2021/03/20 03:32:18;;;;;;;17.52;12.00;;;2.40;99.90;;;;;;5112347;27;20073;-55
2021/03/20 03:35:11;;;;;;;21.45;14.00;;;2.30;99.90;;;;;;5118995;27;20476;-55
2021/03/20 03:37:43;;;;;;;20.63;13.40;;;2.20;99.90;;;;;;5132052;27;20027;-55
2021/03/20 03:40:18;;;;;;;20.60;12.73;;;2.10;99.90;;;;;;5122081;27;20028;-56
2021/03/20 03:42:47;;;;;;;22.52;13.25;;;2.10;99.90;;;;;;5132027;27;20028;-57
2021/03/20 03:45:13;;;;;;;18.63;11.85;;;2.10;99.90;;;;;;5131330;27;20042;-56
2021/03/20 03:47:39;;;;;;;24.90;13.20;;;2.10;99.90;;;;;;5131923;27;20050;-57
2021/03/20 03:50:13;;;;;;;21.13;13.10;;;2.10;99.90;;;;;;5129183;27;20054;-56
2021/03/20 03:52:38;;;;;;;21.50;13.98;;;2.00;99.90;;;;;;5131645;27;20023;-56
2021/03/20 03:55:06;;;;;;;20.95;12.65;;;2.10;99.90;;;;;;5131522;27;20080;-57
2021/03/20 03:58:11;;;;;;;19.65;13.27;;;2.10;99.90;;;;;;5128429;27;20023;-56
2021/03/20 04:00:43;;;;;;;20.67;13.43;;;2.00;99.90;;;;;;5127607;27;20027;-56
2021/03/20 04:03:46;;;;;;;22.33;13.35;;;1.80;99.90;;;;;;5128320;27;20016;-57
2021/03/20 04:06:24;;;;;;;21.33;12.13;;;1.80;99.90;;;;;;5106636;27;20026;-56
2021/03/20 04:09:05;;;;;;;19.58;11.27;;;1.70;99.90;;;;;;5112071;27;20072;-57
2021/03/20 04:11:41;;;;;;;19.13;11.32;;;1.80;99.90;;;;;;5110023;27;20473;-56
2021/03/20 04:14:12;;;;;;;18.52;9.77;;;1.80;99.90;;;;;;5110030;27;20697;-57
2021/03/20 04:16:45;;;;;;;14.60;8.18;;;1.80;99.90;;;;;;5112107;27;20023;-54
2021/03/20 04:19:44;;;;;;;11.43;7.47;;;1.90;99.90;;;;;;5110408;27;20081;-57
2021/03/20 04:22:55;;;;;;;11.40;6.60;;;1.90;99.90;;;;;;5106667;27;20482;-56
2021/03/20 04:25:55;;;;;;;7.80;5.35;;;2.00;99.90;;;;;;5111408;27;20091;-56
2021/03/20 04:28:52;;;;;;;8.45;4.68;;;2.00;99.90;;;;;;5107060;27;20031;-57
2021/03/20 04:31:23;;;;;;;12.43;5.25;;;2.10;99.90;;;;;;5105885;28;20039;-55
2021/03/20 04:34:19;;;;;;;8.98;4.75;;;2.10;99.90;;;;;;5111507;27;20043;-57
2021/03/20 04:36:50;;;;;;;8.05;5.63;;;2.10;99.90;;;;;;5111185;28;20023;-56
2021/03/20 04:39:21;;;;;;;6.93;4.47;;;2.20;99.90;;;;;;5115682;27;20038;-55
2021/03/20 04:41:49;;;;;;;7.45;4.55;;;2.20;99.90;;;;;;5130727;27;20012;-57
2021/03/20 04:44:14;;;;;;;8.93;4.85;;;2.20;99.90;;;;;;5123425;27;20023;-57
2021/03/20 04:46:41;;;;;;;6.43;3.65;;;2.20;99.90;;;;;;5111515;27;20058;-55
2021/03/20 04:49:40;;;;;;;6.80;4.22;;;2.20;99.90;;;;;;5108596;27;20028;-56
2021/03/20 04:52:12;;;;;;;6.20;3.70;;;2.20;99.90;;;;;;5110238;28;20026;-54
2021/03/20 04:54:38;;;;;;;9.65;4.90;;;2.20;99.90;;;;;;5110711;27;20032;-53
2021/03/20 04:57:44;;;;;;;8.18;4.68;;;2.20;99.90;;;;;;5110363;28;20512;-52
2021/03/20 05:00:15;;;;;;;6.30;4.07;;;2.10;99.90;;;;;;5108260;28;20050;-53
2021/03/20 05:02:50;;;;;;;12.35;4.70;;;2.00;99.90;;;;;;5109364;28;20428;-57
2021/03/20 05:05:25;;;;;;;6.90;4.30;;;2.00;99.90;;;;;;5108780;28;20028;-57
2021/03/20 05:07:52;;;;;;;7.78;4.75;;;1.90;99.90;;;;;;5106472;28;20020;-56
2021/03/20 05:10:29;;;;;;;7.03;3.97;;;1.90;99.90;;;;;;5106317;28;20074;-56
2021/03/20 05:12:57;;;;;;;5.70;3.80;;;1.90;99.90;;;;;;5107203;28;20484;-56
2021/03/20 05:15:32;;;;;;;7.13;3.83;;;1.90;99.90;;;;;;5110959;28;20028;-57
2021/03/20 05:17:58;;;;;;;6.78;3.47;;;1.90;99.90;;;;;;5103907;28;20414;-57
2021/03/20 05:20:25;;;;;;;11.95;3.90;;;1.90;99.90;;;;;;5127687;28;20038;-55
2021/03/20 05:22:51;;;;;;;6.75;3.53;;;1.90;99.90;;;;;;5117090;28;20116;-54
2021/03/20 05:25:22;;;;;;;7.10;3.55;;;1.90;99.90;;;;;;5110928;28;20069;-56
2021/03/20 05:27:48;;;;;;;7.50;3.92;;;1.90;99.90;;;;;;5122563;28;20345;-56
2021/03/20 05:30:15;;;;;;;7.28;4.53;;;1.80;99.90;;;;;;5108614;28;20489;-52
2021/03/20 05:32:40;;;;;;;8.27;5.20;;;1.50;99.90;;;;;;5110428;28;20118;-55
2021/03/20 05:35:09;;;;;;;12.38;6.07;;;1.40;99.90;;;;;;5110151;28;20454;-53
2021/03/20 05:37:38;;;;;;;13.52;6.45;;;1.30;99.90;;;;;;5110716;28;20038;-53
2021/03/20 05:40:22;;;;;;;13.88;6.97;;;1.30;99.90;;;;;;5113637;27;20380;-53
2021/03/20 05:43:14;;;;;;;9.88;6.13;;;1.40;99.90;;;;;;5114433;27;20393;-52
2021/03/20 05:45:58;;;;;;;11.18;6.50;;;1.40;99.90;;;;;;5113068;27;20412;-52
2021/03/20 05:48:24;;;;;;;9.50;5.90;;;1.40;99.90;;;;;;5111015;27;20023;-52
2021/03/20 05:51:18;;;;;;;10.07;5.45;;;1.30;99.90;;;;;;5113693;28;20520;-55
2021/03/20 05:53:58;;;;;;;15.90;5.57;;;1.30;99.90;;;;;;5125342;27;20030;-53
2021/03/20 05:56:39;;;;;;;9.35;5.05;;;1.30;99.90;;;;;;5108680;28;20473;-54
2021/03/20 05:59:45;;;;;;;9.75;5.50;;;1.30;99.90;;;;;;5120999;27;20038;-52
2021/03/20 06:02:23;;;;;;;8.80;5.15;;;1.30;99.90;;;;;;5098590;27;20035;-55
2021/03/20 06:05:18;;;;;;;9.02;5.85;;;1.30;99.90;;;;;;5094000;28;20404;-54
2021/03/20 06:08:14;;;;;;;10.15;4.60;;;1.30;99.90;;;;;;5081403;28;20476;-52
2021/03/20 06:10:54;;;;;;;7.30;4.70;;;1.40;99.90;;;;;;5079234;27;20031;-53
2021/03/20 06:13:45;;;;;;;12.13;4.80;;;1.50;99.90;;;;;;5116797;27;20027;-56
2021/03/20 06:16:27;;;;;;;7.80;4.85;;;1.50;99.90;;;;;;5106928;27;20493;-55
2021/03/20 06:19:01;;;;;;;9.25;4.43;;;1.60;99.90;;;;;;5115356;27;20070;-57
2021/03/20 06:21:45;;;;;;;8.52;4.70;;;1.70;99.90;;;;;;5111724;27;20038;-55
2021/03/20 06:24:42;;;;;;;11.10;4.78;;;1.80;99.90;;;;;;5131973;27;20027;-56
2021/03/20 06:27:19;;;;;;;12.18;4.35;;;1.80;99.90;;;;;;5113275;27;20019;-53
2021/03/20 06:30:26;;;;;;;8.07;4.78;;;1.90;99.90;;;;;;5124893;27;20027;-54
2021/03/20 06:32:55;;;;;;;9.30;4.75;;;1.90;99.90;;;;;;5085655;27;20046;-57
2021/03/20 06:35:23;;;;;;;9.05;4.72;;;2.00;99.90;;;;;;5114748;27;20024;-52
2021/03/20 06:37:57;;;;;;;12.45;4.55;;;1.90;99.90;;;;;;5105678;28;20042;-53
2021/03/20 06:40:29;;;;;;;7.78;4.72;;;1.90;99.90;;;;;;5124600;27;20019;-53
2021/03/20 06:42:57;;;;;;;12.77;5.88;;;2.00;99.90;;;;;;5132227;27;20023;-55
2021/03/20 06:45:30;;;;;;;9.95;4.82;;;1.90;99.90;;;;;;5116926;27;20143;-56
2021/03/20 06:48:05;;;;;;;11.55;5.10;;;2.00;99.90;;;;;;5109857;27;20512;-53
2021/03/20 06:50:36;;;;;;;9.90;4.65;;;2.00;99.90;;;;;;5111384;28;20531;-56
2021/03/20 06:53:08;;;;;;;10.77;4.78;;;2.00;99.90;;;;;;5112676;27;20161;-53
2021/03/20 06:55:41;;;;;;;7.90;5.18;;;2.00;99.90;;;;;;5112613;27;20019;-56
2021/03/20 06:58:17;;;;;;;9.57;4.43;;;2.00;99.90;;;;;;5119173;27;20054;-53
2021/03/20 07:00:44;;;;;;;8.23;4.60;;;2.00;99.90;;;;;;5124422;27;20024;-56
2021/03/20 07:03:46;;;;;;;10.73;5.88;;;2.10;99.90;;;;;;5131282;27;20028;-56
2021/03/20 07:06:37;;;;;;;9.40;4.68;;;2.20;99.90;;;;;;5132534;27;20026;-57
2021/03/20 07:09:06;;;;;;;9.63;4.78;;;2.20;99.90;;;;;;5132700;27;20085;-56
2021/03/20 07:11:36;;;;;;;8.73;4.70;;;2.30;99.90;;;;;;5131999;27;20023;-56
2021/03/20 07:14:07;;;;;;;11.00;4.78;;;2.30;99.90;;;;;;5122660;27;20497;-55
2021/03/20 07:16:54;;;;;;;10.63;5.55;;;2.30;99.90;;;;;;5109221;27;20031;-56
2021/03/20 07:19:19;;;;;;;7.60;4.65;;;2.30;99.90;;;;;;5106704;27;20041;-57
2021/03/20 07:21:57;;;;;;;9.75;4.80;;;2.40;99.90;;;;;;5111556;27;20695;-55
2021/03/20 07:24:35;;;;;;;12.20;5.03;;;2.50;99.90;;;;;;5105591;27;20083;-57
2021/03/20 07:27:03;;;;;;;8.55;4.72;;;2.40;99.90;;;;;;5107165;27;20488;-55
2021/03/20 07:29:43;;;;;;;11.20;5.22;;;2.40;99.90;;;;;;5107782;27;20039;-57
2021/03/20 07:32:13;;;;;;;14.52;6.00;;;2.40;99.90;;;;;;5104686;27;20488;-56
2021/03/20 07:34:49;;;;;;;11.48;5.47;;;2.50;99.90;;;;;;5106236;27;20035;-54
2021/03/20 07:37:23;;;;;;;10.63;5.85;;;2.50;99.90;;;;;;5110629;27;20032;-56
2021/03/20 07:39:55;;;;;;;9.27;6.10;;;2.60;99.90;;;;;;5111815;27;20030;-56
2021/03/20 07:42:47;;;;;;;9.32;5.75;;;2.60;99.90;;;;;;5111170;28;20055;-55
2021/03/20 07:45:18;;;;;;;10.23;5.35;;;2.60;99.90;;;;;;5105785;27;20544;-50
2021/03/20 07:48:00;;;;;;;9.80;5.47;;;2.60;99.90;;;;;;5108872;28;20501;-53
2021/03/20 07:50:44;;;;;;;11.40;5.80;;;2.70;99.90;;;;;;5104856;27;20027;-52
2021/03/20 07:53:16;;;;;;;8.00;5.35;;;2.70;99.90;;;;;;5102022;27;20790;-52
2021/03/20 07:56:02;;;;;;;12.85;5.63;;;2.80;99.90;;;;;;5112386;27;20035;-53
2021/03/20 07:58:31;;;;;;;8.13;5.50;;;2.90;99.90;;;;;;5110426;27;20031;-51
2021/03/20 08:01:00;;;;;;;14.68;6.20;;;3.00;99.90;;;;;;5128259;27;20027;-52
2021/03/20 08:03:33;;;;;;;13.25;5.82;;;3.00;99.90;;;;;;5113891;27;20018;-51
2021/03/20 08:06:18;;;;;;;10.50;5.43;;;3.10;99.90;;;;;;5101597;27;20424;-52
2021/03/20 08:08:44;;;;;;;15.02;6.15;;;3.30;99.90;;;;;;5108130;27;20065;-51
2021/03/20 08:11:32;;;;;;;8.25;5.10;;;3.30;99.90;;;;;;5113516;27;20107;-50
2021/03/20 08:14:10;;;;;;;12.18;6.65;;;3.30;99.90;;;;;;5105326;28;20024;-54
2021/03/20 08:16:36;;;;;;;13.93;5.50;;;3.20;99.90;;;;;;5106728;27;20122;-50
2021/03/20 08:19:02;;;;;;;14.88;7.68;;;3.30;99.90;;;;;;5112103;27;20119;-54
2021/03/20 08:21:46;;;;;;;8.35;5.43;;;3.30;99.90;;;;;;5112376;27;20038;-52
2021/03/20 08:24:32;;;;;;;12.77;6.45;;;3.40;99.90;;;;;;5100830;28;20039;-50
2021/03/20 08:27:29;;;;;;;13.00;6.38;;;3.40;99.90;;;;;;5106222;27;20081;-50
2021/03/20 08:30:34;;;;;;;11.63;5.78;;;3.40;99.90;;;;;;5112979;27;20122;-52
2021/03/20 08:33:23;;;;;;;8.27;5.20;;;3.50;99.90;;;;;;5128057;27;20535;-49
2021/03/20 08:36:02;;;;;;;12.23;5.65;;;3.60;99.90;;;;;;5114524;27;20083;-49
2021/03/20 08:38:42;;;;;;;14.88;5.78;;;3.60;99.90;;;;;;5097363;27;20410;-54
2021/03/20 08:41:28;;;;;;;12.05;5.68;;;3.80;99.90;;;;;;5111169;27;20028;-52
2021/03/20 08:44:23;;;;;;;14.25;6.15;;;3.80;99.90;;;;;;5127478;27;20347;-54
2021/03/20 08:47:07;;;;;;;;;;;3.90;99.90;;;;;;5089379;28;20521;-54
2021/03/20 08:49:47;;;;;;;12.52;5.78;;;3.90;99.90;;;;;;5107775;28;19918;-53
2021/03/20 08:52:38;;;;;;;9.90;5.47;;;4.10;99.90;;;;;;5107621;28;20565;-53
2021/03/20 08:55:25;;;;;;;11.80;6.05;;;4.20;99.90;;;;;;5104288;28;20058;-53
2021/03/20 08:58:05;;;;;;;8.45;5.32;;;4.30;99.90;;;;;;5107871;28;20055;-53
2021/03/20 09:00:41;;;;;;;13.05;5.78;;;4.50;99.90;;;;;;5101640;28;20110;-53
2021/03/20 09:03:13;;;;;;;7.53;5.10;;;4.60;99.90;;;;;;5110806;28;20393;-52
2021/03/20 09:05:47;;;;;;;9.30;5.47;;;4.60;99.90;;;;;;5127270;28;20527;-53
2021/03/20 09:08:35;;;;;;;11.65;6.22;;;4.70;99.90;;;;;;5116714;28;20031;-51
2021/03/20 09:11:12;;;;;;;11.57;6.45;;;4.60;99.90;;;;;;5110631;28;20032;-53
2021/03/20 09:13:43;;;;;;;12.48;6.28;;;4.40;99.90;;;;;;5106201;27;20030;-55
2021/03/20 09:16:26;;;;;;;8.20;5.40;;;4.40;99.90;;;;;;5134720;27;20071;-52
2021/03/20 09:18:53;;;;;;;12.73;6.28;;;4.60;99.90;;;;;;5112543;27;20028;-51
2021/03/20 09:21:19;;;;;;;11.25;5.22;;;4.80;99.90;;;;;;5120843;27;20012;-53
2021/03/20 09:23:49;;;;;;;10.60;6.25;;;5.00;99.90;;;;;;5122798;27;20393;-53
2021/03/20 09:26:39;;;;;;;11.43;5.00;;;5.20;99.90;;;;;;5113317;27;20023;-51
2021/03/20 09:29:15;;;;;;;7.68;5.22;;;5.20;99.90;;;;;;5107577;27;20031;-53
2021/03/20 09:31:46;;;;;;;7.20;4.75;;;5.20;99.90;;;;;;5125865;27;20048;-52
2021/03/20 09:34:25;;;;;;;17.83;9.10;;;5.10;99.90;;;;;;5108736;27;20081;-53
2021/03/20 09:36:51;;;;;;;9.50;5.78;;;5.10;99.90;;;;;;5132129;27;20019;-52
2021/03/20 09:39:51;;;;;;;9.43;5.03;;;5.20;99.90;;;;;;5120224;27;20042;-50
2021/03/20 09:45:03;;;;;;;6.03;3.92;;;5.40;99.90;;;;;;5121312;27;20058;-50
2021/03/20 09:47:31;;;;;;;6.38;3.65;;;5.50;99.90;;;;;;5114126;27;20050;-51
2021/03/20 09:50:04;;;;;;;5.72;3.75;;;5.60;99.90;;;;;;5110055;27;20024;-52
2021/03/20 09:52:42;;;;;;;10.82;3.85;;;5.70;99.90;;;;;;5114356;27;20020;-50
2021/03/20 09:55:33;;;;;;;8.02;3.80;;;5.80;99.90;;;;;;5114713;27;20024;-54
2021/03/20 09:58:00;;;;;;;7.82;4.28;;;6.10;99.90;;;;;;5109054;27;20102;-51
2021/03/20 10:00:51;;;;;;;6.22;4.07;;;6.20;99.90;;;;;;5111310;27;20157;-52
2021/03/20 10:03:40;;;;;;;4.03;3.10;;;6.10;99.90;;;;;;5108309;27;20521;-54
2021/03/20 10:06:25;;;;;;;7.30;3.80;;;6.20;99.90;;;;;;5111511;27;20570;-54
2021/03/20 10:09:11;;;;;;;9.13;4.50;;;6.40;99.90;;;;;;5110943;27;20461;-53
2021/03/20 10:11:58;;;;;;;8.10;3.65;;;6.50;99.90;;;;;;5112404;27;20048;-50
2021/03/20 10:14:37;;;;;;;7.93;4.63;;;6.60;99.90;;;;;;5107071;27;20503;-50
2021/03/20 10:17:22;;;;;;;9.35;4.13;;;6.50;99.90;;;;;;5116735;27;20023;-52
2021/03/20 10:19:54;;;;;;;4.13;2.70;;;6.60;99.90;;;;;;5113690;27;20389;-51
2021/03/20 10:22:35;;;;;;;5.22;2.67;;;6.80;99.90;;;;;;5124032;27;20092;-53
2021/03/20 10:25:02;;;;;;;6.90;2.80;;;7.00;99.90;;;;;;5113064;27;20035;-55
2021/03/20 10:27:39;;;;;;;6.43;2.80;;;7.10;99.90;;;;;;5113915;27;20454;-49
2021/03/20 10:30:22;;;;;;;6.07;3.10;;;6.90;99.90;;;;;;5111972;27;20028;-51
2021/03/20 10:33:20;;;;;;;4.47;3.20;;;6.60;99.90;;;;;;5117534;27;20035;-51
2021/03/20 10:35:45;;;;;;;4.95;2.85;;;6.70;99.90;;;;;;5120352;27;20039;-52
2021/03/20 10:38:25;;;;;;;5.93;3.15;;;7.00;99.90;;;;;;5110384;27;20501;-50
2021/03/20 10:41:16;;;;;;;4.35;3.20;;;6.90;99.90;;;;;;5110915;27;20040;-50
2021/03/20 10:43:46;;;;;;;9.50;5.05;;;7.20;99.90;;;;;;5113863;27;20034;-57
2021/03/20 10:46:21;;;;;;;6.13;3.58;;;7.40;99.90;;;;;;5113333;27;20027;-49
2021/03/20 10:48:50;;;;;;;6.47;3.20;;;7.40;99.90;;;;;;5115184;27;20026;-50
2021/03/20 10:51:16;;;;;;;9.73;3.25;;;7.60;99.90;;;;;;5105942;27;20109;-50
2021/03/20 10:53:47;;;;;;;10.77;3.25;;;7.60;99.90;;;;;;5110556;27;20050;-53
2021/03/20 10:56:32;;;;;;;5.82;3.30;;;7.70;99.90;;;;;;5108097;27;20058;-50
2021/03/20 10:59:22;;;;;;;6.82;3.25;;;7.40;99.90;;;;;;5100347;27;20031;-50
2021/03/20 11:01:47;;;;;;;6.05;3.63;;;7.20;99.90;;;;;;5107938;27;20031;-49
2021/03/20 11:04:25;;;;;;;4.75;2.80;;;7.60;99.90;;;;;;5107563;27;20502;-50
2021/03/20 11:06:53;;;;;;;7.05;3.13;;;7.60;99.90;;;;;;5103795;27;20532;-49
2021/03/20 11:09:22;;;;;;;5.25;3.13;;;7.40;99.90;;;;;;5114699;27;20549;-53
2021/03/20 11:11:49;;;;;;;9.75;3.60;;;7.50;99.90;;;;;;5110173;27;20434;-50
2021/03/20 11:14:18;;;;;;;4.97;2.97;;;7.40;99.90;;;;;;5109431;28;20020;-53
2021/03/20 11:16:49;;;;;;;4.60;3.28;;;7.30;99.90;;;;;;5109204;27;20469;-52
2021/03/20 11:19:37;;;;;;;9.25;4.43;;;7.30;99.90;;;;;;5102308;27;20054;-50
2021/03/20 11:22:25;;;;;;;6.63;3.28;;;7.50;99.90;;;;;;5097399;27;20039;-51
2021/03/20 11:24:56;;;;;;;5.80;3.00;;;7.60;99.90;;;;;;5105165;28;20709;-51
2021/03/20 11:27:29;;;;;;;13.23;5.40;;;7.30;99.90;;;;;;5106912;27;20035;-52
2021/03/20 11:30:01;;;;;;;5.05;3.20;;;7.40;99.90;;;;;;5111810;27;20030;-49
2021/03/20 11:32:40;;;;;;;5.72;3.17;;;7.60;99.90;;;;;;5112300;27;20494;-51
2021/03/20 11:35:08;;;;;;;7.70;3.15;;;7.70;99.90;;;;;;5117088;27;20508;-54
2021/03/20 11:37:34;;;;;;;6.57;2.97;;;7.90;99.90;;;;;;5109042;27;20070;-49
2021/03/20 11:40:03;;;;;;;14.05;4.30;;;8.10;99.90;;;;;;5120894;27;20486;-50
2021/03/20 11:42:37;;;;;;;4.72;3.03;;;8.20;99.90;;;;;;5105468;27;20038;-50
2021/03/20 11:45:15;;;;;;;5.82;3.65;;;8.10;99.90;;;;;;5115474;27;20024;-52
2021/03/20 11:47:51;;;;;;;6.50;2.95;;;7.90;99.90;;;;;;5108954;27;20032;-51
2021/03/20 11:50:26;;;;;;;4.20;3.10;;;7.60;99.90;;;;;;5112710;27;20028;-51
2021/03/20 11:53:01;;;;;;;5.05;3.15;;;7.70;99.90;;;;;;5118916;27;20201;-49
2021/03/20 11:55:34;;;;;;;3.33;2.63;;;7.90;99.90;;;;;;5110750;27;20027;-50
2021/03/20 11:58:20;;;;;;;6.90;3.03;;;7.90;99.60;;;;;;5113428;27;20024;-49
2021/03/20 12:00:46;;;;;;;5.88;2.90;;;8.00;99.30;;;;;;5113602;27;20839;-49
2021/03/20 12:03:32;;;;;;;6.35;2.30;;;7.90;98.20;;;;;;5111255;27;20022;-51
2021/03/20 12:06:22;;;;;;;4.55;2.60;;;7.90;98.70;;;;;;5106327;28;20051;-52
2021/03/20 12:08:55;;;;;;;6.47;3.10;;;8.00;97.80;;;;;;5116521;27;20019;-51
2021/03/20 12:11:42;;;;;;;5.30;2.45;;;8.10;98.60;;;;;;5126070;27;20019;-50
2021/03/20 12:14:29;;;;;;;6.60;2.53;;;8.00;97.40;;;;;;5105693;27;20498;-54
2021/03/20 12:17:08;;;;;;;4.80;2.60;;;8.20;98.70;;;;;;5130706;27;20054;-50
2021/03/20 12:19:48;;;;;;;6.22;3.13;;;8.40;99.40;;;;;;5111465;27;20031;-50
2021/03/20 12:22:16;;;;;;;8.00;2.40;;;8.70;98.10;;;;;;5110012;28;20034;-53
2021/03/20 12:24:50;;;;;;;6.00;2.17;;;8.70;97.10;;;;;;5117589;27;20509;-50
2021/03/20 12:27:24;;;;;;;3.50;2.13;;;8.90;96.20;;;;;;5108084;27;20387;-52
2021/03/20 12:29:53;;;;;;;5.28;2.17;;;9.00;95.50;;;;;;5104759;28;20031;-49
2021/03/20 12:32:23;;;;;;;4.18;2.35;;;9.10;94.10;;;;;;5110149;28;20019;-52
2021/03/20 12:34:49;;;;;;;5.05;2.90;;;9.00;93.60;;;;;;5110599;28;20098;-50
2021/03/20 12:37:18;;;;;;;4.45;2.30;;;9.10;93.80;;;;;;5110586;27;20032;-50
2021/03/20 12:39:50;;;;;;;5.18;2.13;;;9.20;90.10;;;;;;5117377;27;20023;-53
2021/03/20 12:42:17;;;;;;;2.65;1.80;;;9.10;89.60;;;;;;5118820;27;20038;-51
2021/03/20 12:44:47;;;;;;;2.97;2.17;;;9.30;89.20;;;;;;5115547;27;20507;-51
2021/03/20 12:47:16;;;;;;;4.65;1.95;;;9.40;86.90;;;;;;5130658;27;20023;-52
2021/03/20 12:49:42;;;;;;;3.83;1.58;;;9.70;88.60;;;;;;5118655;27;20031;-50
2021/03/20 12:52:15;;;;;;;3.90;2.00;;;9.80;78.70;;;;;;5110299;28;20031;-52
2021/03/20 12:54:44;;;;;;;2.87;1.93;;;9.50;75.50;;;;;;5126662;27;20028;-51
2021/03/20 12:57:24;;;;;;;5.10;2.38;;;9.60;77.50;;;;;;5128019;27;20680;-49
2021/03/20 12:59:49;;;;;;;2.90;2.03;;;9.60;77.80;;;;;;5126458;27;20031;-50
2021/03/20 13:02:16;;;;;;;3.45;2.10;;;9.50;79.10;;;;;;5120746;27;20028;-51
2021/03/20 13:04:42;;;;;;;6.68;2.35;;;9.70;77.20;;;;;;5108185;28;20044;-50
2021/03/20 13:07:09;;;;;;;7.10;1.80;;;9.50;75.20;;;;;;5121854;28;20030;-49
2021/03/20 13:09:38;;;;;;;2.17;1.70;;;9.30;72.40;;;;;;5123982;28;20084;-49
2021/03/20 13:12:06;;;;;;;4.00;2.05;;;9.40;71.00;;;;;;5099343;28;20027;-52
2021/03/20 13:14:33;;;;;;;8.68;2.55;;;9.70;69.10;;;;;;5112569;28;20028;-51
2021/03/20 13:17:00;;;;;;;3.13;2.20;;;9.50;72.90;;;;;;5110229;28;20027;-51
2021/03/20 13:19:25;;;;;;;3.17;2.00;;;9.50;74.60;;;;;;5110436;28;20026;-49
2021/03/20 13:21:51;;;;;;;4.00;2.15;;;9.20;74.70;;;;;;5117571;28;20032;-50
2021/03/20 13:24:16;;;;;;;6.82;2.42;;;9.30;71.10;;;;;;5113278;28;20024;-52
2021/03/20 13:26:42;;;;;;;4.32;2.28;;;9.50;71.90;;;;;;5110044;28;20115;-51
2021/03/20 13:29:08;;;;;;;3.92;2.00;;;9.70;72.00;;;;;;5110386;28;20485;-49
2021/03/20 13:31:34;;;;;;;4.82;2.30;;;10.00;72.70;;;;;;5107407;28;20023;-48
2021/03/20 13:34:00;;;;;;;3.55;2.05;;;9.80;69.20;;;;;;5109439;28;20412;-50
2021/03/20 13:36:26;;;;;;;3.15;1.65;;;9.70;69.30;;;;;;5110554;28;20056;-49